Decoded Metar for LELL (SABADELL in SPAIN) (IATA:QSA) | Meteo·Mobile Aviation Weather
aviador You're here:

LELL Decoded Metar

SABADELL in SPAIN
Report Time2019-05-21 15:30:00
UTC Time2019-05-21 15:44:51
Flight Rules vfr VFR
Wind120° at 12 kt
W.Decomp.*RWY 13: 11.8 kt HW 2.1 kt LCW
Visibility9999 m
Phenomena:N/A
Clouds:Few TCU 050 Hf
Expected CloudBase > 5,600 ft AGL from Temp-Dew spread
CeilingNone
Temp23°C (ISA +9)
Dew Point09°C (41% RH)
AAT18.5°C
QNH1015 hPa
Density Alt1,617 ft
Elevation485 ft
Report Wrong Elevation
Raw Report
LELL 211530Z 12012KT 080V160 9999 FEW050TCU 23/09 Q1015=

Extra information for LELL:More info

Metar Taf Metar & Taf Last 4 Metars F.Rules Stats Wind Profile Meteogram Temp Stats Airport Information Weather charts Add Link Nearby VenuesMetar ALERT Operation Metar Decoded Social comments

Aeroclub BS Web Page